Maljamar, NM (88264)

1:00 PM MDT on August 27, 2014 (GMT -0600)
Derrick Ranch | Change Station
CLOSE
Current Station
Personal Weather Station
Location: Lovington, NM
Elevation: 4072 ft
Nearby Weather Stations

Elev 4072 ft 32.93 °N, 103.52 °W | Updated 30 seconds ago

Partly Cloudy
Partly Cloudy
84.3 °F
Feels Like 84 °F
N
6.0
Wind Variable Wind from NW
Gusts 6.0 mph

Today
High -- | Low -- °F
--% Chance of Precip.
Yesterday
High -- | Low -- °F
Precip. -- in
6:26 AM 7:25 PM
Waxing Crescent, 4% visible
Pressure 30.16 in
Visibility 10.0 miles
Clouds Few 8000 ft
Scattered Clouds 11000 ft
Heat Index 84 °F
Dew Point 57 °F
Humidity 40%
Rainfall 0.00 in
Snow Depth Not available.
UV 9 out of 12
Pollen 8.70 out of 12
Air Quality Not available.
Flu Activity Not available.
METAR KHOB 271850Z 19006KT 10SM FEW080 SCT110 32/12 A3016

More Conditions Fewer Conditions

Pressure 30.16 in
Visibility 10.0 miles
Clouds Few 8000 ft
Scattered Clouds 11000 ft
Heat Index 84 °F
Dew Point 57 °F
Humidity 40%
Rainfall 0.00 in
Snow Depth Not available.
UV 9 out of 12
Pollen 8.70 out of 12
Air Quality Not available.
Flu Activity Not available.
METAR KHOB 271850Z 19006KT 10SM FEW080 SCT110 32/12 A3016

More Conditions Fewer Conditions

10-Day Weather Forecast

Almanac

Astronomy

Aug. 27, 2014 Rise Set
Actual Time 6:26 AM MDT 7:25 PM MDT
Civil Twilight 6:00 AM MDT 7:51 PM MDT
Nautical Twilight 5:30 AM MDT 8:21 PM MDT
Astronomical Twilight 4:59 AM MDT 8:52 PM MDT
Moon 8:15 AM MDT 8:29 PM MDT
Length of Visible Light 13h 50m
Length of Day
12h 59m
Tomorrow will be 1m 53s shorter.
Waxing Crescent, 4% of the Moon is Illuminated
Today
Waxing Crescent
Sep 2
First Quarter
Sep 8
Full
Sep 15
Last Quarter
Sep 24
New

Today's Extremes

State Highs State Lows

Community

WunderPhotos

Upload Photos

1,747,753 photos uploaded!

Nearby

Snow Depth

Station Depth Elevation
Sierra Blanca 1 in 10280 ft
Wesner Springs 0 in 11120 ft
Santa Fe 1 in 11445 ft
Gallegos Peak 1 in 9800 ft
Quemazon 1 in 9500 ft

Earthquake Activity

City Distance Mag. Time & Date
No recent earthquake activity has been reported nearby.
Minimum magnitude displayed is 2.5.

Coastal Water Temperatures

Place Temperature
No Stations Reporting

Nearby Weather Stations